Pricedale, Pennsylvania
Current Conditions -  °F | °C
As of 12:53 AM on Friday 28 Nov 2014 (Local Time) from KAGC Reporting Station
Haze Haze  
Wind Chill: 19°   Ceiling: 1600
Heat Index: 28°   Visibility: 5mi
Dew Point: 22°   Wind: 9mph
Humidity: 78%   Direction: 280°W
Pressure: 30.18"   Gusts: 18mph
Location:  40.13°N, 79.84°W
Report Text: KAGC 280553Z 28008G16KT 5SM HZ BKN016 OVC024 M02/M06 A3018 RMK AO2 SNB44E53 SLP240 P0000 60000 T10221056 11011 21022 58000
Loading
Personal Weather Stations






























Interactive Weather Map New forecast layout! Learn more

10-Day Weather Forecast

Advertisements
Track Severe Weather on mobile